createdAt,value
2018-05-24T00:00:53.836Z,7.83
2018-05-24T00:03:26.227Z,7.23
2018-05-24T00:05:58.691Z,8.50
2018-05-24T00:08:31.165Z,7.60
2018-05-24T00:11:03.557Z,7.57
2018-05-24T00:13:36.006Z,8.77
2018-05-24T00:16:08.539Z,8.30
2018-05-24T00:18:40.987Z,8.10
2018-05-24T00:21:14.340Z,7.43
2018-05-24T00:23:46.904Z,6.63
2018-05-24T00:26:19.359Z,7.80
2018-05-24T00:28:52.659Z,8.20
2018-05-24T00:31:25.614Z,10.13
2018-05-24T00:33:58.647Z,9.47
2018-05-24T00:36:31.936Z,7.97
2018-05-24T00:39:04.693Z,7.57
2018-05-24T00:41:37.883Z,7.40
2018-05-24T00:44:11.305Z,7.70
2018-05-24T00:46:44.103Z,8.30
2018-05-24T00:49:16.535Z,7.83
2018-05-24T00:51:49.872Z,9.10
2018-05-24T00:54:23.033Z,8.70
2018-05-24T00:56:55.747Z,7.83
2018-05-24T00:59:28.856Z,8.27
2018-05-24T01:02:01.403Z,7.40
2018-05-24T01:04:33.966Z,7.37
2018-05-24T01:07:06.406Z,8.37
2018-05-24T01:09:39.673Z,8.10
2018-05-24T01:12:12.937Z,8.97
2018-05-24T01:14:45.485Z,10.50
2018-05-24T01:17:18.150Z,10.87
2018-05-24T01:19:50.613Z,6.97
2018-05-24T01:22:23.067Z,9.17
2018-05-24T01:24:56.411Z,6.97
2018-05-24T01:27:30.631Z,7.40
2018-05-24T01:30:03.319Z,7.80
2018-05-24T01:32:36.724Z,6.73
2018-05-24T01:35:09.965Z,8.13
2018-05-24T01:37:49.421Z,7.80
2018-05-24T01:40:22.802Z,7.37
2018-05-24T01:42:56.246Z,8.53
2018-05-24T01:45:28.905Z,7.37
2018-05-24T01:48:01.391Z,9.57
2018-05-24T01:50:35.500Z,7.37
2018-05-24T01:53:08.373Z,8.47
2018-05-24T01:55:40.847Z,7.60
2018-05-24T01:58:14.095Z,8.00
2018-05-24T02:00:46.727Z,7.70
2018-05-24T02:03:19.273Z,7.70
2018-05-24T02:05:51.834Z,8.13
2018-05-24T02:08:24.264Z,6.73
2018-05-24T02:10:56.705Z,7.23
2018-05-24T02:13:29.135Z,7.70
2018-05-24T02:16:03.326Z,7.30
2018-05-24T02:18:35.948Z,8.73
2018-05-24T02:21:08.437Z,6.97
2018-05-24T02:23:41.563Z,6.93
2018-05-24T02:26:14.225Z,6.67
2018-05-24T02:28:47.451Z,7.57
2018-05-24T02:31:19.880Z,7.83
2018-05-24T02:33:53.101Z,7.47
2018-05-24T02:36:25.781Z,7.43
2018-05-24T02:38:59.502Z,7.07
2018-05-24T02:41:32.602Z,6.67
2018-05-24T02:44:05.750Z,7.17
2018-05-24T02:46:38.478Z,6.37
2018-05-24T02:49:10.977Z,6.80
2018-05-24T02:51:44.191Z,7.43
2018-05-24T02:54:16.812Z,7.60
2018-05-24T02:56:50.966Z,8.23
2018-05-24T02:59:23.599Z,8.03
2018-05-24T03:01:56.722Z,7.83
2018-05-24T03:04:30.394Z,6.87
2018-05-24T03:07:03.290Z,7.20
2018-05-24T03:09:36.649Z,7.50
2018-05-24T03:12:09.354Z,7.33
2018-05-24T03:14:41.931Z,6.87
2018-05-24T03:17:15.255Z,7.03
2018-05-24T03:19:47.645Z,7.60
2018-05-24T03:22:21.121Z,9.57
2018-05-24T03:24:54.429Z,7.00
2018-05-24T03:27:26.885Z,7.83
2018-05-24T03:29:59.341Z,6.87
2018-05-24T03:32:31.769Z,6.10
2018-05-24T03:35:05.842Z,6.07
2018-05-24T03:37:38.548Z,6.50
2018-05-24T03:40:11.920Z,7.03
2018-05-24T03:42:45.920Z,7.50
2018-05-24T03:45:18.565Z,8.83
2018-05-24T03:47:51.989Z,7.50
2018-05-24T03:50:24.467Z,6.10
2018-05-24T03:52:57.784Z,7.00
2018-05-24T03:55:30.157Z,6.33
2018-05-24T03:58:02.739Z,6.90
2018-05-24T04:00:53.706Z,7.20
2018-05-24T04:03:45.130Z,6.73
2018-05-24T04:06:19.307Z,7.70
2018-05-24T04:08:51.859Z,6.77
2018-05-24T04:11:24.349Z,8.20
2018-05-24T04:13:56.801Z,6.83
2018-05-24T04:16:29.282Z,6.73
2018-05-24T04:19:03.372Z,7.47
2018-05-24T04:21:36.275Z,6.33
2018-05-24T04:24:09.656Z,6.50
2018-05-24T04:26:42.687Z,8.83
2018-05-24T04:29:15.944Z,7.57
2018-05-24T04:31:48.527Z,7.47
2018-05-24T04:34:21.131Z,8.50
2018-05-24T04:36:53.544Z,10.10
2018-05-24T04:39:27.660Z,10.60
2018-05-24T04:42:00.494Z,9.10
2018-05-24T04:44:34.674Z,10.03
2018-05-24T04:47:08.086Z,11.20
2018-05-24T04:49:40.851Z,10.87
2018-05-24T04:52:13.469Z,9.23
2018-05-24T04:54:46.634Z,7.70
2018-05-24T04:57:20.004Z,8.17
2018-05-24T04:59:52.459Z,8.70
2018-05-24T05:02:24.842Z,9.57
2018-05-24T05:04:57.205Z,7.53
2018-05-24T05:07:31.252Z,8.90
2018-05-24T05:10:04.033Z,8.77
2018-05-24T05:12:37.341Z,7.13
2018-05-24T05:15:09.742Z,7.80
2018-05-24T05:17:42.289Z,11.30
2018-05-24T05:20:15.662Z,8.57
2018-05-24T05:22:49.098Z,9.17
2018-05-24T05:25:22.275Z,9.47
2018-05-24T05:27:55.176Z,10.57
2018-05-24T05:30:29.156Z,9.60
2018-05-24T05:33:02.573Z,11.13
2018-05-24T05:35:35.564Z,9.40
2018-05-24T05:38:08.023Z,11.20
2018-05-24T05:40:40.493Z,12.70
2018-05-24T05:43:12.949Z,9.20
2018-05-24T05:45:46.486Z,12.07
2018-05-24T05:48:19.253Z,11.80
2018-05-24T05:50:51.709Z,10.00
2018-05-24T05:53:24.213Z,11.40
2018-05-24T05:55:57.353Z,10.70
2018-05-24T05:58:29.831Z,9.90
2018-05-24T06:01:03.207Z,10.17
2018-05-24T06:03:36.674Z,10.30
2018-05-24T06:06:09.198Z,10.40
2018-05-24T06:08:42.459Z,12.57
2018-05-24T06:11:15.316Z,11.70
2018-05-24T06:13:48.764Z,11.00
2018-05-24T06:16:22.726Z,10.27
2018-05-24T06:18:55.247Z,13.23
2018-05-24T06:21:27.765Z,9.63
2018-05-24T06:24:01.077Z,11.20
2018-05-24T06:26:34.523Z,10.10
2018-05-24T06:29:08.586Z,9.53
2018-05-24T06:31:42.066Z,10.63
2018-05-24T06:34:16.217Z,11.70
2018-05-24T06:36:49.683Z,9.90
2018-05-24T06:39:22.371Z,11.37
2018-05-24T06:41:54.899Z,9.43
2018-05-24T06:44:27.339Z,11.23
2018-05-24T06:47:00.590Z,10.70
2018-05-24T06:49:33.974Z,9.53
2018-05-24T06:52:07.236Z,10.73
2018-05-24T06:54:39.922Z,11.50
2018-05-24T06:57:12.363Z,11.27
2018-05-24T06:59:44.941Z,11.23
2018-05-24T07:02:17.412Z,9.07
2018-05-24T07:04:50.009Z,8.97
2018-05-24T07:07:22.470Z,10.90
2018-05-24T07:09:55.586Z,9.80
2018-05-24T07:12:28.197Z,11.70
2018-05-24T07:15:01.378Z,10.40
2018-05-24T07:17:34.216Z,9.30
2018-05-24T07:20:07.406Z,10.97
2018-05-24T07:22:40.033Z,11.23
2018-05-24T07:25:12.466Z,9.17
2018-05-24T07:27:44.946Z,9.70
2018-05-24T07:30:18.335Z,11.70
2018-05-24T07:32:50.792Z,12.80
2018-05-24T07:35:23.303Z,14.50
2018-05-24T07:37:55.822Z,13.47
2018-05-24T07:40:29.289Z,15.90
2018-05-24T07:43:02.467Z,14.60
2018-05-24T07:45:35.331Z,14.37
2018-05-24T07:48:08.649Z,15.60
2018-05-24T07:50:41.219Z,14.97
2018-05-24T07:53:13.788Z,14.47
2018-05-24T07:55:47.025Z,20.33
2018-05-24T07:58:19.921Z,16.13
2018-05-24T08:00:53.188Z,21.17
2018-05-24T08:03:25.773Z,19.23
2018-05-24T08:05:59.878Z,19.90
2018-05-24T08:08:32.814Z,20.30
2018-05-24T08:11:05.343Z,22.33
2018-05-24T08:13:37.849Z,22.23
2018-05-24T08:16:11.143Z,26.03
2018-05-24T08:18:45.172Z,22.60
2018-05-24T08:21:17.780Z,22.57
2018-05-24T08:23:50.295Z,24.10
2018-05-24T08:26:22.839Z,21.77
2018-05-24T08:28:55.221Z,20.70
2018-05-24T08:31:29.408Z,22.90
2018-05-24T08:34:02.171Z,25.87
2018-05-24T08:36:35.589Z,26.20
2018-05-24T08:39:08.041Z,22.43
2018-05-24T08:41:40.591Z,21.00
2018-05-24T08:44:13.068Z,26.30
2018-05-24T08:46:46.211Z,22.07
2018-05-24T08:49:18.924Z,18.40
2018-05-24T08:51:52.220Z,19.73
2018-05-24T08:54:24.939Z,21.27
2018-05-24T08:56:57.293Z,22.03
2018-05-24T08:59:30.526Z,20.03
2018-05-24T09:02:03.291Z,18.70
2018-05-24T09:04:35.730Z,20.10
2018-05-24T09:07:09.446Z,20.27
2018-05-24T09:09:42.379Z,19.80
2018-05-24T09:12:15.204Z,20.17
2018-05-24T09:14:47.801Z,19.77
2018-05-24T09:17:20.388Z,21.40
2018-05-24T09:19:52.733Z,19.77
2018-05-24T09:22:25.201Z,22.10
2018-05-24T09:24:57.659Z,21.30
2018-05-24T09:27:30.248Z,22.23
2018-05-24T09:30:03.420Z,20.70
2018-05-24T09:32:36.886Z,22.93
2018-05-24T09:35:09.339Z,26.53
2018-05-24T09:37:43.472Z,25.03
2018-05-24T09:40:17.126Z,29.00
2018-05-24T09:42:50.415Z,21.87
2018-05-24T09:45:24.471Z,24.30
2018-05-24T09:47:57.315Z,26.60
2018-05-24T09:50:30.499Z,23.77
2018-05-24T09:53:03.278Z,24.50
2018-05-24T09:55:35.707Z,24.97
2018-05-24T09:58:08.237Z,27.17
2018-05-24T10:00:40.641Z,23.80
2018-05-24T10:03:13.273Z,27.60
2018-05-24T10:05:46.546Z,28.60
2018-05-24T10:08:18.905Z,25.00
2018-05-24T10:10:51.546Z,21.03
2018-05-24T10:13:24.769Z,24.00
2018-05-24T10:15:58.475Z,27.43
2018-05-24T10:18:31.065Z,23.00
2018-05-24T10:21:04.517Z,26.10
2018-05-24T10:23:36.963Z,27.33
2018-05-24T10:26:10.384Z,29.80
2018-05-24T10:28:43.936Z,24.37
2018-05-24T10:31:17.251Z,21.70
2018-05-24T10:33:49.972Z,20.30
2018-05-24T10:36:22.417Z,27.30
2018-05-24T10:38:54.925Z,26.20
2018-05-24T10:41:27.761Z,24.90
2018-05-24T10:44:00.992Z,25.83
2018-05-24T10:46:33.682Z,25.90
2018-05-24T10:49:06.933Z,20.80
2018-05-24T10:51:39.819Z,22.97
2018-05-24T10:54:13.216Z,25.90
2018-05-24T10:56:46.452Z,25.03
2018-05-24T10:59:19.153Z,25.30
2018-05-24T11:01:52.463Z,25.10
2018-05-24T11:04:25.722Z,24.50
2018-05-24T11:06:58.330Z,24.60
2018-05-24T11:09:30.882Z,23.30
2018-05-24T11:12:03.456Z,21.03
2018-05-24T11:14:36.109Z,23.90
2018-05-24T11:17:09.434Z,24.30
2018-05-24T11:19:42.276Z,21.10
2018-05-24T11:22:15.590Z,20.40
2018-05-24T11:24:48.967Z,21.93
2018-05-24T11:27:21.564Z,21.20
2018-05-24T11:29:54.913Z,22.13
2018-05-24T11:32:28.165Z,22.70
2018-05-24T11:35:00.805Z,22.63
2018-05-24T11:37:33.161Z,23.43
2018-05-24T11:40:06.783Z,24.97
2018-05-24T11:42:40.212Z,25.00
2018-05-24T11:45:13.703Z,21.17
2018-05-24T11:47:47.026Z,24.67
2018-05-24T11:50:19.781Z,23.97
2018-05-24T11:52:53.103Z,22.63
2018-05-24T11:55:25.469Z,19.43
2018-05-24T11:57:58.853Z,19.80
2018-05-24T12:00:31.268Z,20.70
2018-05-24T12:03:04.677Z,15.90
2018-05-24T12:05:38.061Z,16.33
2018-05-24T12:08:10.650Z,23.20
2018-05-24T12:10:43.183Z,18.33
2018-05-24T12:13:15.606Z,17.40
2018-05-24T12:15:49.713Z,19.03
2018-05-24T12:18:22.315Z,17.43
2018-05-24T12:20:55.722Z,15.37
2018-05-24T12:23:28.260Z,16.20
2018-05-24T12:26:00.838Z,15.10
2018-05-24T12:28:33.363Z,15.80
2018-05-24T12:31:06.515Z,15.83
2018-05-24T12:33:39.748Z,16.23
2018-05-24T12:36:12.481Z,15.33
2018-05-24T12:38:44.961Z,18.50
2018-05-24T12:41:18.195Z,18.33
2018-05-24T12:43:50.865Z,19.83
2018-05-24T12:46:23.542Z,16.53
2018-05-24T12:48:56.139Z,16.50
2018-05-24T12:51:28.559Z,21.53
2018-05-24T12:54:01.688Z,19.27
2018-05-24T12:56:34.388Z,13.20
2018-05-24T12:59:07.557Z,14.10
2018-05-24T13:01:40.505Z,13.37
2018-05-24T13:04:14.023Z,10.17
2018-05-24T13:06:47.324Z,15.40
2018-05-24T13:09:20.648Z,9.53
2018-05-24T13:11:53.435Z,12.87
2018-05-24T13:14:26.797Z,10.47
2018-05-24T13:17:00.198Z,13.30
2018-05-24T13:19:33.542Z,20.70
2018-05-24T13:22:06.119Z,16.07
2018-05-24T13:24:39.514Z,18.13
2018-05-24T13:27:12.210Z,15.97
2018-05-24T13:29:45.561Z,17.77
2018-05-24T13:32:18.073Z,13.83
2018-05-24T13:34:50.518Z,11.40
2018-05-24T13:37:23.153Z,14.53
2018-05-24T13:39:55.611Z,15.43
2018-05-24T13:42:29.805Z,12.53
2018-05-24T13:45:02.499Z,18.07
2018-05-24T13:47:35.908Z,14.10
2018-05-24T13:50:08.539Z,15.53
2018-05-24T13:52:41.885Z,18.03
2018-05-24T13:55:14.761Z,17.07
2018-05-24T13:57:48.095Z,19.03
2018-05-24T14:00:22.613Z,16.90
2018-05-24T14:02:55.240Z,16.77
2018-05-24T14:05:27.810Z,15.33
2018-05-24T14:08:01.165Z,18.40
2018-05-24T14:10:34.599Z,16.30
2018-05-24T14:13:08.392Z,14.10
2018-05-24T14:15:42.120Z,13.57
2018-05-24T14:18:15.588Z,13.87
2018-05-24T14:20:48.410Z,12.70
2018-05-24T14:23:21.718Z,11.70
2018-05-24T14:25:55.108Z,12.10
2018-05-24T14:28:27.684Z,13.80
2018-05-24T14:31:00.991Z,13.00
2018-05-24T14:33:34.272Z,13.13
2018-05-24T14:36:07.454Z,11.43
2018-05-24T14:38:40.648Z,10.63
2018-05-24T14:41:13.434Z,10.87
2018-05-24T14:43:45.884Z,11.07
2018-05-24T14:46:19.014Z,9.93
2018-05-24T14:48:52.502Z,14.47
2018-05-24T14:51:25.265Z,13.67
2018-05-24T14:53:57.730Z,10.87
2018-05-24T14:56:31.854Z,12.17
2018-05-24T14:59:04.372Z,10.27
2018-05-24T15:01:36.824Z,12.50
2018-05-24T15:04:09.260Z,11.00
2018-05-24T15:06:41.750Z,12.83
2018-05-24T15:09:14.390Z,13.00
2018-05-24T15:11:47.140Z,12.60
2018-05-24T15:14:19.997Z,12.97
2018-05-24T15:16:53.775Z,16.80
2018-05-24T15:19:26.576Z,15.23
2018-05-24T15:21:59.957Z,14.57
2018-05-24T15:24:32.485Z,16.83
2018-05-24T15:27:05.599Z,13.80
2018-05-24T15:29:38.343Z,12.63
2018-05-24T15:32:10.804Z,12.90
2018-05-24T15:34:43.353Z,13.80
2018-05-24T15:37:17.208Z,16.37
2018-05-24T15:39:50.558Z,14.07
2018-05-24T15:42:23.246Z,15.60
2018-05-24T15:44:55.715Z,12.30
2018-05-24T15:47:29.157Z,14.93
2018-05-24T15:50:02.641Z,12.57
2018-05-24T15:52:35.075Z,17.30
2018-05-24T15:55:07.670Z,11.87
2018-05-24T15:57:41.907Z,13.43
2018-05-24T16:00:14.652Z,11.70
2018-05-24T16:02:47.860Z,13.13
2018-05-24T16:05:20.763Z,15.07
2018-05-24T16:07:54.990Z,18.47
2018-05-24T16:10:27.730Z,16.70
2018-05-24T16:13:00.153Z,14.23
2018-05-24T16:15:34.396Z,14.70
2018-05-24T16:18:07.689Z,10.90
2018-05-24T16:20:40.697Z,12.43
2018-05-24T16:23:14.115Z,12.07
2018-05-24T16:25:46.740Z,13.50
2018-05-24T16:28:19.396Z,15.30
2018-05-24T16:30:53.496Z,12.07
2018-05-24T16:33:26.229Z,12.00
2018-05-24T16:35:59.639Z,20.40
2018-05-24T16:38:32.903Z,20.10
2018-05-24T16:41:06.275Z,12.63
2018-05-24T16:43:39.420Z,14.30
2018-05-24T16:46:12.222Z,18.60
2018-05-24T16:48:44.655Z,18.07
2018-05-24T16:51:18.031Z,18.40
2018-05-24T16:53:51.374Z,15.97
2018-05-24T16:56:23.843Z,17.83
2018-05-24T16:58:58.018Z,15.93
2018-05-24T17:01:30.623Z,15.20
2018-05-24T17:04:04.637Z,21.23
2018-05-24T17:06:37.169Z,19.40
2018-05-24T17:09:09.670Z,17.80
2018-05-24T17:11:43.754Z,20.10
2018-05-24T17:14:17.213Z,18.57
2018-05-24T17:16:49.991Z,19.07
2018-05-24T17:19:22.429Z,19.13
2018-05-24T17:21:54.889Z,21.50
2018-05-24T17:24:28.049Z,27.37
2018-05-24T17:27:00.664Z,19.73
2018-05-24T17:29:33.158Z,22.80
2018-05-24T17:32:05.787Z,18.30
2018-05-24T17:34:38.367Z,25.03
2018-05-24T17:37:10.821Z,23.60
2018-05-24T17:39:43.313Z,23.60
2018-05-24T17:42:16.512Z,20.80
2018-05-24T17:44:50.646Z,18.03
2018-05-24T17:47:23.275Z,22.40
2018-05-24T17:49:56.646Z,22.10
2018-05-24T17:52:29.966Z,18.63
2018-05-24T17:55:04.037Z,17.10
2018-05-24T17:57:36.932Z,23.90
2018-05-24T18:00:10.118Z,19.80
2018-05-24T18:02:43.678Z,16.53
2018-05-24T18:05:16.847Z,12.33
2018-05-24T18:07:49.300Z,14.43
2018-05-24T18:10:22.656Z,13.07
2018-05-24T18:12:55.266Z,13.20
2018-05-24T18:15:28.963Z,11.83
2018-05-24T18:18:01.846Z,9.87
2018-05-24T18:20:34.363Z,9.90
2018-05-24T18:23:07.093Z,10.20
2018-05-24T18:25:40.291Z,12.33
2018-05-24T18:28:12.634Z,11.73
2018-05-24T18:30:45.927Z,12.77
2018-05-24T18:33:18.659Z,10.93
2018-05-24T18:35:52.814Z,11.13
2018-05-24T18:38:25.759Z,10.60
2018-05-24T18:40:58.314Z,10.50
2018-05-24T18:43:31.627Z,11.70
2018-05-24T18:46:05.121Z,10.50
2018-05-24T18:48:38.008Z,11.80
2018-05-24T18:51:11.334Z,10.50
2018-05-24T18:53:43.985Z,10.50
2018-05-24T18:56:17.301Z,11.00
2018-05-24T18:58:49.945Z,10.10
2018-05-24T19:01:22.332Z,12.10
2018-05-24T19:03:55.109Z,8.67
2018-05-24T19:06:28.364Z,9.77
2018-05-24T19:09:00.900Z,11.83
2018-05-24T19:11:33.459Z,12.20
2018-05-24T19:14:07.578Z,12.60
2018-05-24T19:16:40.052Z,14.63
2018-05-24T19:19:13.495Z,13.30
2018-05-24T19:21:46.285Z,11.60
2018-05-24T19:24:20.020Z,12.90
2018-05-24T19:26:52.828Z,12.77
2018-05-24T19:29:25.530Z,14.57
2018-05-24T19:31:58.796Z,11.50
2018-05-24T19:34:33.226Z,11.40
2018-05-24T19:37:05.690Z,14.13
2018-05-24T19:39:38.180Z,12.10
2018-05-24T19:42:11.046Z,16.27
2018-05-24T19:44:43.584Z,12.23
2018-05-24T19:47:16.861Z,9.20
2018-05-24T19:49:50.355Z,7.30
2018-05-24T19:52:22.750Z,5.93
2018-05-24T19:54:56.306Z,5.90
2018-05-24T19:57:29.433Z,5.40
2018-05-24T20:00:02.499Z,5.53
2018-05-24T20:02:35.675Z,4.63
2018-05-24T20:05:08.359Z,3.90
2018-05-24T20:07:41.768Z,4.00
2018-05-24T20:10:15.275Z,4.60
2018-05-24T20:12:48.491Z,4.00
2018-05-24T20:15:21.135Z,4.13
2018-05-24T20:17:55.050Z,3.83
2018-05-24T20:20:27.902Z,3.47
2018-05-24T20:23:01.193Z,3.53
2018-05-24T20:25:33.757Z,3.07
2018-05-24T20:28:07.175Z,3.10
2018-05-24T20:30:41.337Z,2.70
2018-05-24T20:33:14.016Z,2.50
2018-05-24T20:35:47.348Z,2.50
2018-05-24T20:38:20.652Z,3.20
2018-05-24T20:40:55.015Z,3.83
2018-05-24T20:43:28.426Z,3.77
2018-05-24T20:46:01.282Z,2.90
2018-05-24T20:48:35.404Z,3.17
2018-05-24T20:51:08.291Z,3.03
2018-05-24T20:53:41.703Z,3.40
2018-05-24T20:56:15.220Z,2.37
2018-05-24T20:58:48.804Z,2.73
2018-05-24T21:01:22.564Z,2.77
2018-05-24T21:03:56.753Z,2.70
2018-05-24T21:06:31.037Z,3.83
2018-05-24T21:09:04.504Z,3.63
2018-05-24T21:11:37.331Z,3.00
2018-05-24T21:14:10.671Z,4.40
2018-05-24T21:16:43.031Z,3.40
2018-05-24T21:19:15.458Z,3.17
2018-05-24T21:21:49.063Z,3.13
2018-05-24T21:24:22.311Z,3.90
2018-05-24T21:26:54.938Z,5.63
2018-05-24T21:29:28.964Z,5.20
2018-05-24T21:32:02.254Z,4.40
2018-05-24T21:34:34.967Z,4.60
2018-05-24T21:37:07.697Z,4.70
2018-05-24T21:39:40.934Z,4.27
2018-05-24T21:42:14.276Z,5.30
2018-05-24T21:44:47.525Z,4.53
2018-05-24T21:47:21.098Z,4.73
2018-05-24T21:49:54.238Z,5.13
2018-05-24T21:52:27.793Z,5.10
2018-05-24T21:55:01.686Z,3.90
2018-05-24T21:57:35.849Z,4.53
2018-05-24T22:00:09.823Z,4.60
2018-05-24T22:02:43.264Z,4.30
2018-05-24T22:05:16.182Z,4.67
2018-05-24T22:07:49.738Z,3.83
2018-05-24T22:10:23.748Z,4.53
2018-05-24T22:12:56.603Z,4.23
2018-05-24T22:15:29.853Z,4.43
2018-05-24T22:18:03.303Z,4.57
2018-05-24T22:20:36.729Z,3.50
2018-05-24T22:23:10.193Z,3.67
2018-05-24T22:25:43.386Z,3.50
2018-05-24T22:28:15.978Z,3.70
2018-05-24T22:30:49.265Z,3.03
2018-05-24T22:33:21.763Z,3.53
2018-05-24T22:35:55.105Z,3.90
2018-05-24T22:38:28.158Z,3.57
2018-05-24T22:41:01.207Z,4.17
2018-05-24T22:43:33.887Z,3.30
2018-05-24T22:46:07.299Z,3.23
2018-05-24T22:48:40.721Z,3.80
2018-05-24T22:51:14.112Z,4.50
2018-05-24T22:53:47.509Z,3.90
2018-05-24T22:56:20.902Z,4.27
2018-05-24T22:58:53.445Z,3.07
2018-05-24T23:01:26.667Z,2.67
2018-05-24T23:03:59.530Z,3.30
2018-05-24T23:06:32.726Z,3.03
2018-05-24T23:09:05.602Z,3.70
2018-05-24T23:11:38.968Z,2.90
2018-05-24T23:14:12.458Z,2.77
2018-05-24T23:16:45.101Z,2.33
2018-05-24T23:19:18.760Z,3.17
2018-05-24T23:21:51.627Z,3.30
2018-05-24T23:24:24.807Z,2.37
2018-05-24T23:26:58.062Z,2.60
2018-05-24T23:29:30.826Z,2.27
2018-05-24T23:32:04.233Z,3.07
2018-05-24T23:34:36.927Z,3.20
2018-05-24T23:37:10.285Z,2.47
2018-05-24T23:39:43.809Z,2.57
2018-05-24T23:42:17.994Z,2.53
2018-05-24T23:44:51.359Z,2.60
2018-05-24T23:47:24.159Z,2.33
2018-05-24T23:49:56.905Z,2.40
2018-05-24T23:52:30.179Z,2.30
2018-05-24T23:55:02.875Z,2.20
2018-05-24T23:57:36.762Z,2.33
